Time;durP1;ratioP1;P1;durP2;ratioP2;P2;SDS_P1;SDS_P2;PMS_P1;PMS_P2;Temp;Humidity;BMP_temperature;BMP_pressure;BME280_temperature;BME280_humidity;BME280_pressure;Samples;Min_cycle;Max_cycle;Signal;HPM_P1;HPM_P2
2022/06/13 00:00:22;;;;;;;;;5.00;5.00;;;;;23.62;53.58;99458.63;5067155;28;45453;-60
2022/06/13 00:02:48;;;;;;;;;4.00;4.00;;;;;23.58;53.76;99462.56;5068342;28;45480;-60
2022/06/13 00:05:16;;;;;;;;;4.75;4.75;;;;;23.54;53.85;99463.81;5065733;28;46555;-61
2022/06/13 00:07:41;;;;;;;;;5.60;5.20;;;;;23.50;53.89;99460.50;5069216;28;45524;-61
2022/06/13 00:10:08;;;;;;;;;5.50;5.00;;;;;23.48;54.01;99458.94;5067683;28;45907;-61
2022/06/13 00:12:34;;;;;;;;;5.00;5.00;;;;;23.45;53.92;99462.78;5067962;28;45643;-61
2022/06/13 00:14:59;;;;;;;;;5.00;5.00;;;;;23.42;54.05;99454.97;5051225;28;46715;-60
2022/06/13 00:17:25;;;;;;;;;6.00;5.00;;;;;23.39;54.62;99460.59;5066312;28;45628;-60
2022/06/13 00:19:51;;;;;;;;;5.25;4.75;;;;;23.28;54.74;99458.88;5069843;28;45522;-61
2022/06/13 00:22:17;;;;;;;;;4.75;4.75;;;;;23.19;55.37;99456.09;5069067;28;45484;-61
2022/06/13 00:24:42;;;;;;;;;4.00;4.00;;;;;23.09;54.78;99449.81;5068049;28;46195;-60
2022/06/13 00:27:09;;;;;;;;;4.25;4.25;;;;;23.02;54.35;99445.94;5055205;28;45482;-60
2022/06/13 00:29:36;;;;;;;;;5.20;4.20;;;;;22.94;55.30;99447.47;5073620;28;45536;-61
2022/06/13 00:32:01;;;;;;;;;3.25;3.25;;;;;22.88;55.15;99439.94;5073634;28;45456;-60
2022/06/13 00:34:27;;;;;;;;;6.25;5.00;;;;;22.87;55.45;99440.06;5053335;28;47523;-61
2022/06/13 00:36:52;;;;;;;;;5.25;5.00;;;;;22.83;55.17;99439.47;5072812;28;45543;-60
2022/06/13 00:39:18;;;;;;;;;4.00;4.00;;;;;22.79;55.65;99437.19;5068734;28;45625;-60
2022/06/13 00:41:43;;;;;;;;;4.50;4.50;;;;;22.73;56.26;99437.66;5073499;28;45510;-60
2022/06/13 00:44:30;;;;;;;;;4.50;4.50;;;;;22.68;56.65;99438.03;5073276;28;46236;-60
2022/06/13 00:46:56;;;;;;;;;4.00;4.00;;;;;22.67;56.52;99430.13;5071565;28;45444;-60
2022/06/13 00:49:34;;;;;;;;;4.50;4.50;;;;;22.66;57.41;99429.25;5072706;28;45408;-60
2022/06/13 00:52:02;;;;;;;;;5.50;5.00;;;;;22.65;57.70;99427.56;5071471;28;45613;-60
2022/06/13 00:54:28;;;;;;;;;5.75;5.50;;;;;22.62;57.63;99423.28;5071653;28;45407;-60
2022/06/13 00:56:54;;;;;;;;;4.75;4.75;;;;;22.59;57.91;99426.25;5073108;28;45512;-60
2022/06/13 00:59:23;;;;;;;;;5.50;5.00;;;;;22.52;57.28;99427.75;5070230;28;45504;-60
2022/06/13 01:01:49;;;;;;;;;3.75;3.50;;;;;22.47;58.19;99429.97;5070589;28;45360;-60
2022/06/13 01:04:15;;;;;;;;;4.00;4.00;;;;;22.42;57.83;99434.03;5071745;28;45570;-61
2022/06/13 01:06:45;;;;;;;;;4.00;4.00;;;;;22.31;57.84;99434.06;5070370;28;45522;-60
2022/06/13 01:09:13;;;;;;;;;6.80;5.80;;;;;22.20;57.79;99426.91;5072308;28;45542;-60
2022/06/13 01:11:50;;;;;;;;;4.25;4.00;;;;;22.11;58.35;99409.75;5070573;28;45499;-60
2022/06/13 01:14:22;;;;;;;;;5.25;4.50;;;;;22.08;58.98;99406.44;5070435;28;45538;-60
2022/06/13 01:17:05;;;;;;;;;4.60;4.00;;;;;22.11;58.99;99400.81;5072382;28;45516;-60
2022/06/13 01:20:08;;;;;;;;;5.00;5.00;;;;;22.14;59.01;99412.13;5058400;28;45425;-60
2022/06/13 01:23:12;;;;;;;;;5.00;5.00;;;;;22.15;59.32;99404.94;5071681;28;46296;-60
2022/06/13 01:25:53;;;;;;;;;3.80;2.60;;;;;22.10;59.11;99417.91;5068804;28;46083;-60
2022/06/13 01:29:10;;;;;;;;;4.00;4.00;;;;;22.08;59.51;99409.13;5070611;28;45475;-60
2022/06/13 01:31:57;;;;;;;;;5.00;4.25;;;;;22.08;59.46;99409.13;5063250;28;45692;-60
2022/06/13 01:34:35;;;;;;;;;5.75;5.75;;;;;22.02;59.87;99407.78;5065241;28;45453;-61
2022/06/13 01:37:22;;;;;;;;;5.75;5.00;;;;;21.99;59.55;99409.84;5068636;28;46728;-60
2022/06/13 01:39:56;;;;;;;;;4.20;4.20;;;;;22.02;60.17;99412.31;5070107;28;45549;-60
2022/06/13 01:42:33;;;;;;;;;4.75;4.50;;;;;22.04;59.91;99413.03;5069828;28;45477;-60
2022/06/13 01:45:18;;;;;;;;;5.00;5.00;;;;;22.03;59.77;99422.94;5071866;28;45658;-60
2022/06/13 01:47:59;;;;;;;;;4.75;3.50;;;;;22.04;60.40;99429.16;5068313;28;45557;-60
2022/06/13 01:50:27;;;;;;;;;5.00;5.00;;;;;21.96;60.69;99424.38;5069888;28;45530;-60
2022/06/13 01:53:15;;;;;;;;;7.00;5.50;;;;;21.87;60.30;99434.03;5070217;28;45558;-60
2022/06/13 01:55:47;;;;;;;;;7.00;6.00;;;;;21.82;60.97;99435.38;5071409;28;46172;-60
2022/06/13 01:58:35;;;;;;;;;6.00;5.00;;;;;21.68;60.43;99430.28;5052996;28;47398;-60
2022/06/13 02:01:06;;;;;;;;;4.20;3.80;;;;;21.55;60.01;99438.47;5070442;28;45484;-60
2022/06/13 02:03:39;;;;;;;;;5.00;5.00;;;;;21.47;59.75;99430.19;5071609;28;45484;-60
2022/06/13 02:06:18;;;;;;;;;7.25;5.00;;;;;21.42;60.30;99437.75;5069954;28;45381;-60
2022/06/13 02:08:59;;;;;;;;;5.00;5.00;;;;;21.39;61.13;99446.03;5067742;28;46603;-60
2022/06/13 02:11:47;;;;;;;;;4.00;4.00;;;;;21.32;61.21;99440.31;5063058;28;45500;-60
2022/06/13 02:14:36;;;;;;;;;5.25;5.25;;;;;21.30;61.97;99433.34;5068961;28;45366;-60
2022/06/13 02:17:11;;;;;;;;;4.00;4.00;;;;;21.30;61.68;99427.97;5070130;28;45515;-60
2022/06/13 02:19:59;;;;;;;;;3.20;3.00;;;;;21.32;61.66;99431.41;5067164;28;46495;-60
2022/06/13 02:22:39;;;;;;;;;4.20;4.20;;;;;21.34;61.75;99418.72;5071170;28;45468;-61
2022/06/13 02:25:11;;;;;;;;;4.75;4.00;;;;;21.34;61.50;99422.25;5069875;28;45906;-60
2022/06/13 02:27:38;;;;;;;;;4.00;4.00;;;;;21.35;61.01;99421.28;5070797;28;45518;-60
2022/06/13 02:30:13;;;;;;;;;5.50;5.25;;;;;21.38;61.16;99418.38;5068232;28;46395;-60
2022/06/13 02:32:46;;;;;;;;;5.60;5.60;;;;;21.40;61.36;99420.94;5068718;28;45530;-60
2022/06/13 02:35:19;;;;;;;;;5.00;5.00;;;;;21.43;61.27;99426.91;5070066;28;45563;-60
2022/06/13 02:37:52;;;;;;;;;5.00;5.00;;;;;21.46;60.93;99415.91;5051949;28;45933;-60
2022/06/13 02:40:34;;;;;;;;;4.75;4.75;;;;;21.48;60.73;99413.09;5071339;28;46585;-60
2022/06/13 02:43:07;;;;;;;;;4.40;4.40;;;;;21.50;60.86;99417.38;5067849;28;45432;-60
2022/06/13 02:45:51;;;;;;;;;4.75;4.00;;;;;21.53;60.03;99417.13;5071059;28;45470;-60
2022/06/13 02:48:48;;;;;;;;;6.00;4.75;;;;;21.54;60.25;99416.16;5068140;28;45625;-60
2022/06/13 02:51:19;;;;;;;;;4.60;4.00;;;;;21.54;59.51;99418.84;5069711;28;46810;-60
2022/06/13 02:54:08;;;;;;;;;5.00;5.00;;;;;21.54;59.55;99415.31;5068649;28;45568;-60
2022/06/13 03:00:05;;;;;;;;;4.00;4.00;;;;;21.53;60.01;99411.78;5068460;28;45468;-60
2022/06/13 03:02:41;;;;;;;;;4.00;4.00;;;;;21.51;59.94;99407.50;5070256;28;45519;-61
2022/06/13 03:05:21;;;;;;;;;6.80;6.00;;;;;21.51;60.09;99420.91;5069593;28;45438;-60
2022/06/13 03:07:55;;;;;;;;;6.00;6.00;;;;;21.50;60.64;99417.38;5066706;28;45563;-60
2022/06/13 03:10:27;;;;;;;;;6.50;5.00;;;;;21.50;61.35;99420.06;5069300;28;45440;-60
2022/06/13 03:12:58;;;;;;;;;6.25;6.25;;;;;21.48;61.30;99415.78;5070390;28;45483;-60
2022/06/13 03:15:35;;;;;;;;;4.80;4.00;;;;;21.45;61.80;99414.19;5069818;28;45498;-60
2022/06/13 03:18:11;;;;;;;;;8.00;6.00;;;;;21.45;61.73;99422.25;5050505;28;45397;-60
2022/06/13 03:21:13;;;;;;;;;6.00;5.75;;;;;21.44;61.96;99422.41;5055545;28;45495;-60
2022/06/13 03:23:46;;;;;;;;;7.00;6.00;;;;;21.40;62.44;99427.16;5003841;28;46501;-61
2022/06/13 03:26:19;;;;;;;;;7.20;6.80;;;;;21.37;63.17;99422.03;5054925;28;45431;-60
2022/06/13 03:28:59;;;;;;;;;7.00;7.00;;;;;21.35;63.45;99420.44;5065376;28;45525;-60
2022/06/13 03:31:53;;;;;;;;;6.75;5.50;;;;;21.31;63.18;99417.13;5064240;28;45584;-60
2022/06/13 03:34:26;;;;;;;;;8.25;5.25;;;;;21.29;62.93;99429.81;5044146;28;46305;-60
2022/06/13 03:37:03;;;;;;;;;6.60;6.60;;;;;21.27;62.57;99429.09;5069706;28;45577;-60
2022/06/13 03:39:35;;;;;;;;;7.00;6.50;;;;;21.24;62.45;99440.91;5065058;28;45442;-60
2022/06/13 03:42:15;;;;;;;;;8.00;6.00;;;;;21.20;62.49;99435.91;5066031;28;45761;-60
2022/06/13 03:45:07;;;;;;;;;5.00;5.00;;;;;21.18;62.92;99435.16;5048090;28;47831;-60
2022/06/13 03:47:44;;;;;;;;;6.20;5.60;;;;;21.16;62.85;99434.41;5051317;28;45590;-61
2022/06/13 03:50:13;;;;;;;;;6.75;6.00;;;;;21.15;62.98;99433.56;5066488;28;45464;-60
2022/06/13 03:52:44;;;;;;;;;6.50;6.00;;;;;21.14;62.99;99429.16;5060650;28;45513;-60
2022/06/13 03:55:20;;;;;;;;;5.00;5.00;;;;;21.15;62.16;99428.19;5065566;28;46460;-60
2022/06/13 03:58:00;;;;;;;;;5.60;5.60;;;;;21.13;62.49;99438.19;5069845;28;46231;-60
2022/06/13 04:00:34;;;;;;;;;4.75;4.75;;;;;21.11;62.65;99439.31;5049928;28;45511;-60
2022/06/13 04:03:01;;;;;;;;;5.00;4.75;;;;;21.08;62.22;99447.56;5068786;28;45420;-60
2022/06/13 04:05:32;;;;;;;;;5.75;5.75;;;;;21.04;62.36;99451.47;5063533;28;46554;-60
2022/06/13 04:08:00;;;;;;;;;5.00;5.00;;;;;20.99;62.26;99445.59;5069618;28;45443;-60
2022/06/13 04:10:26;;;;;;;;;8.00;6.75;;;;;20.98;62.80;99450.09;5070011;28;45638;-60
2022/06/13 04:12:51;;;;;;;;;6.75;6.75;;;;;20.96;63.13;99461.91;5069114;28;45481;-61
2022/06/13 04:15:49;;;;;;;;;5.00;5.00;;;;;20.90;63.03;99458.75;5069987;28;45821;-60
2022/06/13 04:18:34;;;;;;;;;7.20;5.40;;;;;20.89;63.27;99458.88;5062882;28;45471;-60
2022/06/13 04:21:09;;;;;;;;;9.00;5.75;;;;;20.89;63.70;99454.38;5044819;28;45593;-60
2022/06/13 04:24:19;;;;;;;;;7.00;7.00;;;;;20.90;63.44;99437.31;5045186;28;45494;-60
2022/06/13 04:27:13;;;;;;;;;6.75;6.75;;;;;20.96;64.10;99451.19;5057391;28;45496;-60
2022/06/13 04:29:46;;;;;;;;;7.75;7.00;;;;;20.99;63.66;99445.59;5040077;28;45639;-60
2022/06/13 04:32:18;;;;;;;;;7.25;6.00;;;;;21.02;63.51;99451.56;5058730;28;45447;-60
2022/06/13 04:34:48;;;;;;;;;6.00;6.00;;;;;21.06;63.60;99441.47;5067368;28;45519;-60
2022/06/13 04:37:15;;;;;;;;;8.50;8.00;;;;;21.08;63.42;99456.47;5068475;28;45473;-60
2022/06/13 04:39:42;;;;;;;;;9.00;8.50;;;;;21.11;63.73;99453.56;5067142;28;45515;-61
2022/06/13 04:42:09;;;;;;;;;8.25;7.75;;;;;21.15;62.94;99459.50;5068045;28;45471;-60
2022/06/13 04:44:37;;;;;;;;;9.00;9.00;;;;;21.19;63.22;99469.03;5065585;28;45591;-60
2022/06/13 04:47:05;;;;;;;;;9.25;7.25;;;;;21.20;63.15;99460.03;5067888;28;46607;-60
2022/06/13 04:49:41;;;;;;;;;7.20;7.20;;;;;21.21;63.16;99461.75;5067770;28;45536;-60
2022/06/13 04:52:13;;;;;;;;;8.75;8.75;;;;;21.23;62.91;99465.19;5067507;28;45603;-59
2022/06/13 04:54:49;;;;;;;;;7.75;7.75;;;;;21.30;63.01;99465.53;5065978;28;45373;-59
2022/06/13 04:57:17;;;;;;;;;7.00;7.00;;;;;21.38;62.84;99463.13;5067338;28;45555;-60
2022/06/13 04:59:44;;;;;;;;;5.80;5.80;;;;;21.42;62.22;99469.94;5068207;28;45515;-59
2022/06/13 05:02:23;;;;;;;;;10.00;8.00;;;;;21.40;62.60;99467.38;5068972;28;45575;-59
2022/06/13 05:04:49;;;;;;;;;7.00;7.00;;;;;21.36;62.52;99473.09;5064682;28;45531;-59
2022/06/13 05:07:18;;;;;;;;;8.00;8.00;;;;;21.27;62.72;99469.34;5067794;28;45561;-59
2022/06/13 05:09:50;;;;;;;;;6.80;6.80;;;;;21.24;63.25;99474.94;5065346;28;45619;-59
2022/06/13 05:12:26;;;;;;;;;8.00;8.00;;;;;21.22;63.65;99474.19;5069678;28;45464;-59
2022/06/13 05:15:01;;;;;;;;;6.50;6.00;;;;;21.18;63.43;99470.84;5071467;28;45533;-59
2022/06/13 05:17:50;;;;;;;;;9.75;8.00;;;;;21.20;62.77;99476.13;5053143;28;48336;-59
2022/06/13 05:20:32;;;;;;;;;7.00;7.00;;;;;21.28;63.55;99470.19;5062690;28;45765;-59
2022/06/13 05:23:15;;;;;;;;;8.00;8.00;;;;;21.35;63.04;99479.44;5071546;28;45499;-59
2022/06/13 05:25:57;;;;;;;;;7.50;7.00;;;;;21.37;62.49;99477.50;5068327;28;45575;-59
2022/06/13 05:28:26;;;;;;;;;5.50;5.50;;;;;21.39;62.13;99483.59;5067572;28;45532;-59
2022/06/13 05:30:54;;;;;;;;;8.20;8.20;;;;;21.45;62.10;99489.31;5069923;28;45582;-59
2022/06/13 05:33:22;;;;;;;;;9.75;8.50;;;;;21.54;62.22;99498.47;5069556;28;45552;-59
2022/06/13 05:35:52;;;;;;;;;9.25;8.25;;;;;21.61;61.66;99497.03;5061728;28;45504;-59
2022/06/13 05:38:20;;;;;;;;;8.75;7.50;;;;;21.67;61.37;99490.31;5066211;28;45642;-59
2022/06/13 05:40:46;;;;;;;;;9.60;9.20;;;;;21.72;61.96;99494.34;5070034;28;45428;-59
2022/06/13 05:43:13;;;;;;;;;8.75;8.25;;;;;21.78;61.55;99490.31;5071583;28;45376;-59
2022/06/13 05:45:40;;;;;;;;;11.00;8.75;;;;;21.87;61.48;99495.78;5060207;28;45432;-58
2022/06/13 05:48:10;;;;;;;;;8.25;8.25;;;;;21.97;60.14;99495.88;5070527;28;46439;-59
2022/06/13 05:50:35;;;;;;;;;8.40;8.40;;;;;22.02;60.32;99498.22;5048919;28;45431;-59
2022/06/13 05:53:01;;;;;;;;;10.00;10.00;;;;;22.09;60.79;99496.78;5060469;28;45436;-59
2022/06/13 05:55:27;;;;;;;;;11.00;9.00;;;;;22.15;60.60;99507.00;5070368;28;45636;-58
2022/06/13 05:57:53;;;;;;;;;9.00;8.00;;;;;22.18;60.47;99504.06;5070055;28;45515;-59
2022/06/13 06:00:24;;;;;;;;;8.75;8.50;;;;;22.19;60.50;99503.94;5070272;28;45597;-58
2022/06/13 06:02:49;;;;;;;;;8.00;8.00;;;;;22.22;60.83;99506.38;5069562;28;45518;-59
2022/06/13 06:05:15;;;;;;;;;7.25;7.00;;;;;22.26;59.92;99507.00;5068026;28;45555;-59
2022/06/13 06:07:41;;;;;;;;;9.00;9.00;;;;;22.27;60.08;99509.56;5069497;28;45564;-59
2022/06/13 06:10:12;;;;;;;;;9.40;8.00;;;;;22.28;59.89;99519.31;5071239;28;45532;-58
2022/06/13 06:12:38;;;;;;;;;8.50;7.00;;;;;22.28;59.59;99518.47;5070018;28;45608;-58
2022/06/13 06:15:04;;;;;;;;;7.75;6.75;;;;;22.27;59.21;99511.38;5070893;28;45393;-59
2022/06/13 06:17:29;;;;;;;;;7.75;7.75;;;;;22.27;59.63;99514.06;5066827;28;46339;-58
2022/06/13 06:19:54;;;;;;;;;7.25;7.25;;;;;22.31;58.92;99514.66;5070438;28;45488;-59
2022/06/13 06:22:20;;;;;;;;;5.50;5.50;;;;;22.35;58.89;99516.13;5065770;28;45493;-60
2022/06/13 06:24:45;;;;;;;;;6.25;6.25;;;;;22.38;58.45;99516.72;5069006;28;45546;-60
2022/06/13 06:27:15;;;;;;;;;6.50;6.50;;;;;22.44;58.34;99521.59;5070307;28;46005;-60
2022/06/13 06:29:40;;;;;;;;;7.60;6.00;;;;;22.47;57.74;99512.41;5070368;28;45756;-60
2022/06/13 06:32:06;;;;;;;;;6.00;6.00;;;;;22.46;57.56;99516.91;5070354;28;45468;-61
2022/06/13 06:34:32;;;;;;;;;5.00;5.00;;;;;22.46;57.86;99516.91;5066397;28;45393;-60
2022/06/13 06:36:57;;;;;;;;;7.00;7.00;;;;;22.44;57.68;99520.75;5067949;28;45677;-60
2022/06/13 06:39:22;;;;;;;;;8.00;7.25;;;;;22.41;57.88;99515.63;5063425;28;45515;-59
2022/06/13 06:41:48;;;;;;;;;9.00;8.50;;;;;22.36;58.11;99523.19;5064381;28;45466;-59
2022/06/13 06:44:14;;;;;;;;;11.00;7.75;;;;;22.36;58.54;99513.31;5068898;28;45566;-59
2022/06/13 06:46:39;;;;;;;;;7.50;7.00;;;;;22.40;58.50;99521.97;5069478;28;45845;-60
2022/06/13 06:49:05;;;;;;;;;9.50;8.50;;;;;22.44;58.47;99518.06;5051992;28;45541;-59
2022/06/13 06:51:30;;;;;;;;;9.25;8.50;;;;;22.50;58.62;99518.38;5069093;28;45454;-60
2022/06/13 07:02:10;;;;;;;;;7.40;7.40;;;;;22.55;58.63;99537.69;5069811;28;45474;-59
2022/06/13 07:04:35;;;;;;;;;8.00;7.00;;;;;22.52;57.58;99532.53;5068356;28;45702;-60
2022/06/13 07:07:01;;;;;;;;;4.75;3.75;;;;;22.51;57.75;99538.91;5048791;28;47327;-59
2022/06/13 07:09:26;;;;;;;;;7.50;7.00;;;;;22.51;57.12;99546.97;5069260;28;45511;-59
2022/06/13 07:11:54;;;;;;;;;7.50;6.50;;;;;22.53;57.38;99549.53;5005759;28;46187;-59
2022/06/13 07:14:27;;;;;;;;;8.75;8.00;;;;;22.55;57.39;99540.38;4983561;28;45498;-59
2022/06/13 07:16:52;;;;;;;;;9.00;7.00;;;;;22.58;56.80;99540.13;5007847;28;46603;-60
2022/06/13 07:19:18;;;;;;;;;6.75;6.00;;;;;22.61;56.81;99536.31;5006078;28;45561;-58
2022/06/13 07:21:44;;;;;;;;;9.00;7.25;;;;;22.63;56.66;99537.03;5004839;28;45665;-60
2022/06/13 07:24:10;;;;;;;;;6.75;6.75;;;;;22.63;56.64;99532.50;5008765;28;45611;-58
2022/06/13 07:26:36;;;;;;;;;7.50;6.75;;;;;22.65;56.66;99535.06;5008456;28;46451;-58
2022/06/13 07:29:02;;;;;;;;;7.00;5.80;;;;;22.69;56.35;99538.34;5009369;28;45441;-59
2022/06/13 07:31:36;;;;;;;;;8.00;7.00;;;;;22.72;56.98;99541.66;5009231;28;45582;-58
2022/06/13 07:34:02;;;;;;;;;7.75;7.00;;;;;22.79;56.79;99542.84;5006413;28;45483;-58
2022/06/13 07:36:28;;;;;;;;;16.75;16.25;;;;;22.84;56.74;99540.66;5007181;28;46390;-60
2022/06/13 07:38:53;;;;;;;;;8.50;8.25;;;;;22.87;56.85;99536.84;5007998;28;45413;-59
2022/06/13 07:41:22;;;;;;;;;7.00;7.00;;;;;22.92;56.60;99534.63;5008502;28;45681;-59
2022/06/13 07:43:50;;;;;;;;;7.25;6.75;;;;;22.94;56.79;99538.91;5008108;28;45506;-59
2022/06/13 07:46:15;;;;;;;;;6.20;6.00;;;;;22.95;56.30;99534.38;4979641;28;46417;-59
2022/06/13 07:48:40;;;;;;;;;6.00;6.00;;;;;22.97;56.56;99535.06;5008662;28;45455;-58
2022/06/13 07:51:07;;;;;;;;;8.00;7.25;;;;;23.01;56.50;99531.16;5008178;28;45430;-59
2022/06/13 07:53:34;;;;;;;;;8.75;8.75;;;;;23.11;57.22;99531.25;5008135;28;45568;-58
2022/06/13 07:55:59;;;;;;;;;10.00;9.00;;;;;23.16;56.88;99534.38;5007325;28;46562;-58
2022/06/13 07:58:36;;;;;;;;;8.00;7.75;;;;;23.22;56.78;99525.78;5005913;28;45538;-59
2022/06/13 08:01:03;;;;;;;;;7.75;7.75;;;;;23.26;57.17;99522.72;5004415;28;45659;-58
2022/06/13 08:03:31;;;;;;;;;8.25;8.25;;;;;23.36;57.23;99527.28;5004884;28;45716;-57
2022/06/13 08:05:57;;;;;;;;;8.00;7.80;;;;;23.45;56.92;99521.13;5007070;28;46362;-57
2022/06/13 08:08:24;;;;;;;;;7.60;7.60;;;;;23.58;56.47;99505.63;5006494;28;45436;-57
2022/06/13 08:10:51;;;;;;;;;7.20;7.20;;;;;23.70;55.30;99509.94;5007940;28;45458;-58
2022/06/13 08:13:19;;;;;;;;;6.00;6.00;;;;;23.83;54.77;99505.16;5007006;28;45525;-60
2022/06/13 08:15:45;;;;;;;;;7.00;5.40;;;;;23.95;54.25;99505.94;5007408;28;45475;-58
2022/06/13 08:18:13;;;;;;;;;8.00;8.00;;;;;24.07;53.54;99512.91;5007901;28;45479;-58
2022/06/13 08:20:39;;;;;;;;;7.60;7.60;;;;;24.15;52.15;99510.38;5005581;28;45501;-57
2022/06/13 08:23:08;;;;;;;;;7.00;7.00;;;;;24.23;53.62;99501.59;5008442;28;45524;-63
2022/06/13 08:25:35;;;;;;;;;8.75;8.25;;;;;24.28;53.03;99496.69;5007727;28;46685;-58
2022/06/13 08:28:01;;;;;;;;;8.40;8.00;;;;;24.34;52.53;99496.13;5007097;28;45426;-58
2022/06/13 08:30:35;;;;;;;;;10.75;8.00;;;;;24.40;52.37;99497.41;5006216;28;45453;-58
2022/06/13 08:33:01;;;;;;;;;6.25;6.25;;;;;24.47;52.63;99488.59;4985995;28;45569;-58
2022/06/13 08:35:26;;;;;;;;;12.25;10.00;;;;;24.55;53.76;99483.38;5004071;28;45610;-59
2022/06/13 08:37:52;;;;;;;;;13.25;12.25;;;;;24.60;54.49;99482.97;4988241;28;45499;-59
2022/06/13 08:40:17;;;;;;;;;9.75;8.25;;;;;24.63;52.70;99496.16;5006412;28;45616;-58
2022/06/13 08:42:51;;;;;;;;;9.50;7.75;;;;;24.64;54.24;99492.44;5004791;28;45662;-58
2022/06/13 08:45:24;;;;;;;;;14.75;14.75;;;;;24.65;58.00;99503.09;5007781;28;45587;-58
2022/06/13 08:48:28;;;;;;;;;11.00;11.00;;;;;24.55;58.07;99504.09;5010178;28;45551;-58
2022/06/13 08:51:07;;;;;;;;;14.00;13.00;;;;;24.49;59.24;99504.63;5006468;28;45485;-58
2022/06/13 08:53:56;;;;;;;;;13.75;13.75;;;;;24.44;58.56;99494.31;5011401;28;45506;-58
2022/06/13 08:56:26;;;;;;;;;12.00;12.00;;;;;24.43;58.03;99499.84;5011352;28;45542;-59
2022/06/13 08:59:22;;;;;;;;;16.00;14.80;;;;;24.44;60.34;99496.16;5011245;28;45541;-58
2022/06/13 09:01:50;;;;;;;;;14.75;14.50;;;;;24.46;59.37;99496.84;5008846;28;45714;-59
2022/06/13 09:04:24;;;;;;;;;13.25;11.25;;;;;24.49;59.26;99492.00;5008847;28;45660;-60
2022/06/13 09:07:00;;;;;;;;;12.25;12.25;;;;;24.52;59.99;99489.03;5009267;28;45528;-59
2022/06/13 09:09:42;;;;;;;;;13.25;12.75;;;;;24.54;60.23;99491.59;5010255;28;45569;-60
2022/06/13 09:12:17;;;;;;;;;15.50;15.50;;;;;24.52;61.06;99490.88;5011566;28;45753;-59
2022/06/13 09:14:52;;;;;;;;;16.25;15.00;;;;;24.52;60.75;99490.88;4992289;28;45462;-60
2022/06/13 09:17:45;;;;;;;;;11.25;11.25;;;;;24.50;61.79;99485.63;5010239;28;46017;-58
2022/06/13 09:20:22;;;;;;;;;15.80;15.60;;;;;24.53;60.97;99492.59;5007665;28;45510;-60
2022/06/13 09:23:17;;;;;;;;;17.25;14.00;;;;;24.56;61.20;99498.56;5007109;28;45532;-60
2022/06/13 09:25:53;;;;;;;;;20.25;17.50;;;;;24.57;61.33;99497.56;5006672;28;45512;-59
2022/06/13 09:28:27;;;;;;;;;14.75;13.25;;;;;24.64;61.40;99478.97;5009872;28;45692;-59
2022/06/13 09:31:13;;;;;;;;;13.00;13.00;;;;;24.69;60.77;99493.72;5010274;28;45628;-59
2022/06/13 09:33:45;;;;;;;;;14.00;14.00;;;;;24.74;60.94;99496.00;5008677;28;45602;-60
2022/06/13 09:36:38;;;;;;;;;13.25;11.50;;;;;24.81;60.57;99472.84;5008389;28;45513;-59
2022/06/13 09:39:10;;;;;;;;;16.25;15.25;;;;;24.90;60.08;99495.44;5008814;28;45590;-59
2022/06/13 09:41:59;;;;;;;;;16.00;14.50;;;;;24.92;60.26;99488.06;5007646;28;45530;-59
2022/06/13 09:44:48;;;;;;;;;15.50;15.50;;;;;24.92;61.08;99480.81;5010544;28;45435;-59
2022/06/13 09:47:33;;;;;;;;;16.50;15.50;;;;;25.01;60.20;99474.56;5009748;28;45529;-59
2022/06/13 09:50:11;;;;;;;;;16.50;16.25;;;;;25.03;60.40;99507.66;5008899;28;45729;-59
2022/06/13 09:52:54;;;;;;;;;17.00;16.75;;;;;25.10;59.70;99491.75;5007596;28;45525;-59
2022/06/13 09:55:27;;;;;;;;;15.75;12.50;;;;;25.18;59.94;99470.28;5009877;28;45718;-59
2022/06/13 09:57:58;;;;;;;;;16.00;15.25;;;;;25.26;59.26;99469.56;4981720;28;45993;-59
2022/06/13 10:00:39;;;;;;;;;12.25;11.75;;;;;25.31;59.11;99467.25;5009670;28;46824;-59
2022/06/13 10:03:58;;;;;;;;;17.00;15.75;;;;;25.32;59.33;99447.38;5009420;28;45469;-59
2022/06/13 10:06:36;;;;;;;;;13.75;12.25;;;;;25.36;59.46;99467.69;4927540;28;45525;-60
2022/06/13 10:09:01;;;;;;;;;18.50;17.25;;;;;25.43;59.12;99438.25;5008218;28;45624;-59
2022/06/13 10:11:56;;;;;;;;;18.50;16.75;;;;;25.43;59.22;99435.56;5008757;28;46361;-60
2022/06/13 10:14:47;;;;;;;;;13.50;13.50;;;;;25.45;59.03;99458.72;5008927;28;45451;-59
2022/06/13 10:17:15;;;;;;;;;13.25;13.25;;;;;25.46;59.06;99436.13;5007290;28;45524;-59
2022/06/13 10:19:44;;;;;;;;;19.00;16.00;;;;;25.51;58.90;99438.34;5009669;28;45466;-59
2022/06/13 10:22:13;;;;;;;;;13.75;13.25;;;;;25.52;58.73;99426.56;5009825;28;45675;-59
2022/06/13 10:25:00;;;;;;;;;13.00;11.25;;;;;25.57;58.36;99446.72;4991721;28;45525;-59
2022/06/13 10:27:56;;;;;;;;;15.00;15.00;;;;;25.60;58.65;99462.63;5009629;28;45536;-59
2022/06/13 10:30:40;;;;;;;;;10.00;10.00;;;;;25.64;58.21;99433.47;5009867;28;45559;-59
2022/06/13 10:33:30;;;;;;;;;15.00;15.00;;;;;25.68;58.06;99426.78;5008866;28;45828;-59
2022/06/13 10:36:20;;;;;;;;;12.50;12.00;;;;;25.72;58.30;99444.41;4987776;28;45646;-59
2022/06/13 10:38:56;;;;;;;;;12.25;11.75;;;;;25.74;58.17;99431.59;5007554;28;45379;-59
2022/06/13 10:41:24;;;;;;;;;11.00;11.00;;;;;25.76;57.71;99424.19;4988448;28;45595;-59
2022/06/13 10:43:51;;;;;;;;;10.75;10.75;;;;;25.84;57.68;99440.50;5008946;28;46363;-59
2022/06/13 10:46:16;;;;;;;;;16.75;16.50;;;;;25.87;57.60;99439.34;4991602;28;45485;-61
2022/06/13 10:48:48;;;;;;;;;4.00;3.50;;;;;25.86;57.55;99426.84;5008199;28;45598;-59
2022/06/13 10:51:14;;;;;;;;;12.00;10.50;;;;;25.87;57.36;99447.44;5006227;28;45758;-59
2022/06/13 10:53:47;;;;;;;;;12.00;12.00;;;;;25.87;57.36;99429.38;5008318;28;46556;-59
2022/06/13 10:56:40;;;;;;;;;12.60;12.60;;;;;25.92;57.47;99446.00;5008837;28;45653;-59
2022/06/13 10:59:05;;;;;;;;;10.25;9.25;;;;;25.94;56.90;99433.19;4999695;28;45581;-59
2022/06/13 11:01:32;;;;;;;;;8.75;8.75;;;;;25.97;56.80;99435.59;5009569;28;45419;-59
2022/06/13 11:04:06;;;;;;;;;12.50;9.50;;;;;26.02;56.65;99421.63;5007140;28;45681;-59
2022/06/13 11:06:47;;;;;;;;;13.25;12.00;;;;;26.06;56.20;99429.28;5008385;28;45498;-59
2022/06/13 11:09:31;;;;;;;;;14.00;14.00;;;;;26.08;56.01;99421.88;4990150;28;45462;-59
2022/06/13 11:12:01;;;;;;;;;9.75;9.75;;;;;26.09;56.20;99420.03;5006830;28;45580;-59
2022/06/13 11:23:01;;;;;;;;;13.75;11.75;;;;;26.12;54.95;99445.91;5003560;28;45481;-59
2022/06/13 11:25:30;;;;;;;;;10.50;9.50;;;;;26.16;55.38;99431.03;5007312;28;45500;-59
2022/06/13 11:28:11;;;;;;;;;10.20;8.00;;;;;26.18;54.78;99421.78;5008543;28;45500;-59
2022/06/13 11:30:48;;;;;;;;;7.25;6.75;;;;;26.20;55.03;99390.06;5008901;28;45379;-59
2022/06/13 11:33:19;;;;;;;;;12.25;11.25;;;;;26.25;54.71;99405.81;5003036;28;45457;-59
2022/06/13 11:35:53;;;;;;;;;9.00;9.00;;;;;26.26;54.60;99399.41;5006515;28;46533;-59
2022/06/13 11:38:33;;;;;;;;;3.40;2.20;;;;;26.25;53.90;99409.38;5006481;28;45637;-59
2022/06/13 11:41:18;;;;;;;;;9.50;9.50;;;;;26.27;54.58;99393.00;4990572;28;45403;-59
2022/06/13 11:44:00;;;;;;;;;5.75;4.00;;;;;26.31;54.29;99405.25;5007748;28;45550;-60
2022/06/13 11:46:26;;;;;;;;;4.25;4.25;;;;;26.37;54.35;99410.88;5004501;28;46078;-59
2022/06/13 11:48:52;;;;;;;;;9.75;9.25;;;;;26.45;53.53;99366.00;5007550;28;45501;-59
2022/06/13 11:51:28;;;;;;;;;12.50;11.00;;;;;26.45;53.01;99402.00;5007963;28;45557;-60
2022/06/13 11:53:57;;;;;;;;;9.50;9.50;;;;;26.47;53.60;99397.28;5008367;28;45451;-59
2022/06/13 11:56:32;;;;;;;;;10.60;9.60;;;;;26.50;53.50;99418.56;5007851;28;45621;-59
2022/06/13 11:59:02;;;;;;;;;10.20;9.00;;;;;26.54;52.79;99359.63;5007383;28;45560;-58
2022/06/13 12:01:38;;;;;;;;;9.50;8.75;;;;;26.55;53.09;99402.75;5006482;28;45734;-59
2022/06/13 12:04:12;;;;;;;;;9.25;9.25;;;;;26.53;52.71;99388.53;5006311;28;45461;-59
2022/06/13 12:06:59;;;;;;;;;10.25;10.25;;;;;26.51;52.67;99387.81;5007174;28;45609;-59
2022/06/13 12:09:32;;;;;;;;;8.80;7.00;;;;;26.51;52.73;99398.66;4999004;28;45474;-59
2022/06/13 12:12:04;;;;;;;;;9.00;8.80;;;;;26.58;52.41;99407.00;5007510;28;45518;-59
2022/06/13 12:14:41;;;;;;;;;6.75;6.75;;;;;26.68;52.88;99370.72;5007637;28;45573;-59
2022/06/13 12:17:10;;;;;;;;;10.00;10.00;;;;;26.75;51.81;99355.56;5007640;28;45775;-59
2022/06/13 12:19:49;;;;;;;;;4.20;4.20;;;;;26.84;51.70;99371.84;4999605;28;45517;-59